Salzburg, Austria

11:55 AM CET on December 20, 2014 (GMT +0100)
Salzburg Maxglan | Change Station
CLOSE
Current Station
Personal Weather Station
Location: Salzburg, SALZBURG
Elevation: 1398 ft
Nearby Weather Stations
Active Advisory: Wind english:

Elev 1398 ft 47.80 °N, 13.01 °E | Updated 1 minute ago

Mostly Cloudy
Mostly Cloudy
55.8 °F
Feels Like 55.8 °F
N
0.7
Wind Variable Wind from North
Gusts 1.6 mph

Today
High -- | Low -- °F
--% Chance of Precip.
Yesterday
High -- | Low -- °F
Precip. -- in
7:53 AM 4:17 PM
Waning Crescent, 3% visible
Pressure 30.21 in
Visibility 6.2 miles
Clouds Few 2000 ft
Mostly Cloudy 5000 ft
Dew Point 40 °F
Humidity 55%
Rainfall 0.11 in
Snow Depth Not available.
UV 1 out of 12
Pollen Not available.
Air Quality Not available.
Flu Activity Not available.
METAR LOWS 201050Z VRB03KT 9999 FEW020 BKN050 09/03 Q1023 NOSIG

More Conditions Fewer Conditions

Pressure 30.21 in
Visibility 6.2 miles
Clouds Few 2000 ft
Mostly Cloudy 5000 ft
Dew Point 40 °F
Humidity 55%
Rainfall 0.11 in
Snow Depth Not available.
UV 1 out of 12
Pollen Not available.
Air Quality Not available.
Flu Activity Not available.
METAR LOWS 201050Z VRB03KT 9999 FEW020 BKN050 09/03 Q1023 NOSIG

More Conditions Fewer Conditions

10-Day Weather Forecast

Almanac

Astronomy

Dec. 20, 2014 Rise Set
Actual Time
Civil Twilight
Nautical Twilight
Astronomical Twilight
Moon
Length of Visible Light
Length of Day
Tomorrow will be .
, % of the Moon is Illuminated

Today's Extremes

Country Highs Country Lows

Community

WunderPhotos

Upload Photos

1,779,151 photos uploaded!

WunderBlogs® & News

Nearby

Air Quality

  Air Quality AQ Index Pollutant
Not available.

Snow Depth

Station Depth Elevation

Earthquake Activity

City Distance Mag. Time & Date
Minimum magnitude displayed is 2.5.

Coastal Water Temperatures

Place Temperature

Nearby Weather Stations